Lubbock Preston Smith International Airport
KLBB : now visible

Airfield :











YOU CAN JOIN US ON...

 
LOGIN :

Register | Disclaimer

   EN    FR    IT 

 









Legend :    VFR   Marginal VFR   IFR   Intensive IFR   Very Intensive IFR
Visi :
Ceiling :
>= 8 km
>= 3000ft
5 to 8 km
1000 to 3000 ft
1500m to 5 km
500 to 1000 ft
800 to 1500m
200 to 500 ft
< 800m
< 200 ft
Symbols :   Thunderstorms  Fog  Heavy snow  Heavy precipitations  Wind > 20 kt






- Airport Elevation : 3282 ft
- IATA code : LBB


KLBB - Lubbock Preston Smith International

CURRENT METAR :
  • 041253Z 13005KT 10SM FEW090 FEW120 SCT150 SCT210 12/02 A3015 RMK AO2 SLP177 VIRGA DSNT NE AND S-SW T01170022

EXPIRED METARs :
  • 041153Z 17005KT 10SM FEW150 FEW180 14/02 A3015 RMK AO2 SLP169 T01390017 10150 20122 53001
  • 041053Z 17006KT 10SM FEW160 14/02 A3013 RMK AO2 SLP163 T01390022

TAF KLBB
Valid from the 04 at 12:00 until the 05 at 12:00 UTC


041120Z 0412/0512 18011KT P6SM SCT120
PROB30 0509/0512 4SM -TSRA BR BKN100CB
KZFW FIR / North America



MET'MAP, your aeronautical weather chart ! - Copyright ORBIFLY December 2007 - Disclaimer

ORBIFLY MET'MAP TEAM :

Programming & Development : Alexandra Zaïnal
Original concept : Baudouin d'Aumeries
Technical & hardware support : Manuel Goepfert
Assistance : Marc-Olivier Méhu




SOURCES & CREDITS :

   NOAA       Earth
Advisory